Alvin, Texas
Current Conditions -  °F | °C
As of 4:53 PM on Tuesday 25 Nov 2014 (Local Time) from KLVJ Reporting Station
Clear Clear  
Wind Chill: 64°   Ceiling: Unl
Heat Index: 64°   Visibility: 10mi
Dew Point: 27°   Wind: 0mph
Humidity: 25%   Direction: NA
Pressure: 30.25"   Gusts: NA
Location:  29.42°N, 95.24°W
Report Text: KLVJ 252253Z AUTO 00000KT 10SM CLR 18/M03 A3025 RMK AO2 SLP242 T01781028
Loading
Personal Weather Stations






























Interactive Weather Map New forecast layout! Learn more

10-Day Weather Forecast

Advertisements
Track Severe Weather on mobile